McCutchanville, Indiana
Current Conditions -  °F | °C
As of 5:54 PM on Monday 20 Oct 2014 (Local Time) from KEVV Reporting Station
Broken Clouds Broken Clouds  
Wind Chill: 69°   Ceiling: 6500
Heat Index: 69°   Visibility: 10mi
Dew Point: 53°   Wind: 5mph
Humidity: 57%   Direction: 270°W
Pressure: 29.91"   Gusts: NA
Location:  38.1195°N, 87.5368°W
Report Text: KEVV 202254Z 27004KT 10SM BKN065 BKN080 21/12 A2991 RMK AO2 SLP125 T02060117
Loading
Personal Weather Stations






























Interactive Weather Map
Tropical Storm Tracking
New forecast layout! Learn more

10-Day Weather Forecast

Advertisements
Track Severe Weather on mobile